sensor_id;sensor_type;location;lat;lon;timestamp;P1;P2;P0
75960;PMS7003;64644;48.914;2.254;2022-12-16T00:01:45;27.50;25.50;16.00
75960;PMS7003;64644;48.914;2.254;2022-12-16T00:04:11;33.25;27.25;18.25
75960;PMS7003;64644;48.914;2.254;2022-12-16T00:06:36;22.00;22.00;13.50
75960;PMS7003;64644;48.914;2.254;2022-12-16T00:09:02;23.00;20.25;15.75
75960;PMS7003;64644;48.914;2.254;2022-12-16T00:11:27;32.50;30.75;21.25
75960;PMS7003;64644;48.914;2.254;2022-12-16T00:13:55;29.00;27.75;18.00
75960;PMS7003;64644;48.914;2.254;2022-12-16T00:16:21;28.00;26.50;18.50
75960;PMS7003;64644;48.914;2.254;2022-12-16T00:18:46;29.75;25.50;17.00
75960;PMS7003;64644;48.914;2.254;2022-12-16T00:21:12;26.25;24.00;17.50
75960;PMS7003;64644;48.914;2.254;2022-12-16T00:23:37;27.75;24.25;18.00
75960;PMS7003;64644;48.914;2.254;2022-12-16T00:26:05;30.00;28.50;18.50
75960;PMS7003;64644;48.914;2.254;2022-12-16T00:28:31;30.75;24.75;15.75
75960;PMS7003;64644;48.914;2.254;2022-12-16T00:30:57;25.50;24.75;18.00
75960;PMS7003;64644;48.914;2.254;2022-12-16T00:33:23;35.25;31.50;20.50
75960;PMS7003;64644;48.914;2.254;2022-12-16T00:35:50;25.25;21.75;15.50
75960;PMS7003;64644;48.914;2.254;2022-12-16T00:38:16;34.00;25.50;16.50
75960;PMS7003;64644;48.914;2.254;2022-12-16T00:40:42;24.25;23.75;18.25
75960;PMS7003;64644;48.914;2.254;2022-12-16T00:43:08;31.00;29.00;19.00
75960;PMS7003;64644;48.914;2.254;2022-12-16T00:45:34;30.50;28.50;18.50
75960;PMS7003;64644;48.914;2.254;2022-12-16T00:47:59;31.75;26.00;20.00
75960;PMS7003;64644;48.914;2.254;2022-12-16T00:50:25;34.00;24.50;13.50
75960;PMS7003;64644;48.914;2.254;2022-12-16T00:52:51;30.00;25.00;18.75
75960;PMS7003;64644;48.914;2.254;2022-12-16T00:55:17;33.75;27.75;16.50
75960;PMS7003;64644;48.914;2.254;2022-12-16T00:57:43;32.00;27.00;18.25
75960;PMS7003;64644;48.914;2.254;2022-12-16T01:00:09;29.00;26.25;17.50
75960;PMS7003;64644;48.914;2.254;2022-12-16T01:02:46;32.75;27.50;19.00
75960;PMS7003;64644;48.914;2.254;2022-12-16T01:05:13;25.50;25.50;17.50
75960;PMS7003;64644;48.914;2.254;2022-12-16T01:07:41;32.25;28.50;18.75
75960;PMS7003;64644;48.914;2.254;2022-12-16T01:10:07;25.25;25.25;19.25
75960;PMS7003;64644;48.914;2.254;2022-12-16T01:12:34;33.00;29.75;21.00
75960;PMS7003;64644;48.914;2.254;2022-12-16T01:15:00;23.75;20.75;16.00
75960;PMS7003;64644;48.914;2.254;2022-12-16T01:17:26;32.50;28.50;19.00
75960;PMS7003;64644;48.914;2.254;2022-12-16T01:19:52;29.00;28.75;20.50
75960;PMS7003;64644;48.914;2.254;2022-12-16T01:22:18;31.75;26.50;18.25
75960;PMS7003;64644;48.914;2.254;2022-12-16T01:24:45;37.00;32.00;20.50
75960;PMS7003;64644;48.914;2.254;2022-12-16T01:27:10;31.00;24.50;20.00
75960;PMS7003;64644;48.914;2.254;2022-12-16T01:29:36;36.50;32.00;20.50
75960;PMS7003;64644;48.914;2.254;2022-12-16T01:32:02;35.75;32.00;20.50
75960;PMS7003;64644;48.914;2.254;2022-12-16T01:34:28;37.25;35.75;23.00
75960;PMS7003;64644;48.914;2.254;2022-12-16T01:36:53;33.75;32.00;20.00
75960;PMS7003;64644;48.914;2.254;2022-12-16T01:39:18;38.50;36.75;21.75
75960;PMS7003;64644;48.914;2.254;2022-12-16T01:41:44;37.00;35.00;22.75
75960;PMS7003;64644;48.914;2.254;2022-12-16T01:44:13;41.00;39.00;21.50
75960;PMS7003;64644;48.914;2.254;2022-12-16T01:46:40;37.00;36.25;23.50
75960;PMS7003;64644;48.914;2.254;2022-12-16T01:49:10;34.25;32.50;16.25
75960;PMS7003;64644;48.914;2.254;2022-12-16T01:51:43;38.25;33.25;24.00
75960;PMS7003;64644;48.914;2.254;2022-12-16T01:54:11;36.50;34.25;23.50
75960;PMS7003;64644;48.914;2.254;2022-12-16T01:56:53;36.50;31.00;22.00
75960;PMS7003;64644;48.914;2.254;2022-12-16T01:59:21;43.25;41.00;24.00
75960;PMS7003;64644;48.914;2.254;2022-12-16T02:01:49;44.50;37.50;27.00
75960;PMS7003;64644;48.914;2.254;2022-12-16T02:04:15;41.75;38.00;24.50
75960;PMS7003;64644;48.914;2.254;2022-12-16T02:06:40;40.75;38.75;26.00
75960;PMS7003;64644;48.914;2.254;2022-12-16T02:09:07;45.25;38.75;28.75
75960;PMS7003;64644;48.914;2.254;2022-12-16T02:17:20;43.50;35.25;24.00
75960;PMS7003;64644;48.914;2.254;2022-12-16T02:39:36;48.50;42.25;27.00
75960;PMS7003;64644;48.914;2.254;2022-12-16T02:47:21;48.00;40.25;26.50
75960;PMS7003;64644;48.914;2.254;2022-12-16T02:49:51;41.00;38.50;27.25
75960;PMS7003;64644;48.914;2.254;2022-12-16T02:52:18;41.50;39.00;23.00
75960;PMS7003;64644;48.914;2.254;2022-12-16T02:54:47;44.25;38.00;27.50
75960;PMS7003;64644;48.914;2.254;2022-12-16T03:02:37;37.75;34.00;24.00
75960;PMS7003;64644;48.914;2.254;2022-12-16T03:05:16;46.00;37.50;24.75
75960;PMS7003;64644;48.914;2.254;2022-12-16T03:07:50;39.25;36.00;22.00
75960;PMS7003;64644;48.914;2.254;2022-12-16T03:10:19;47.75;38.25;25.25
75960;PMS7003;64644;48.914;2.254;2022-12-16T03:12:49;43.75;41.25;25.75
75960;PMS7003;64644;48.914;2.254;2022-12-16T03:15:17;38.50;38.50;22.75
75960;PMS7003;64644;48.914;2.254;2022-12-16T03:17:47;49.75;42.25;27.25
75960;PMS7003;64644;48.914;2.254;2022-12-16T03:20:16;55.00;42.50;27.00
75960;PMS7003;64644;48.914;2.254;2022-12-16T03:22:46;31.75;31.25;21.50
75960;PMS7003;64644;48.914;2.254;2022-12-16T03:25:15;41.75;36.75;25.50
75960;PMS7003;64644;48.914;2.254;2022-12-16T03:27:52;45.50;36.25;26.00
75960;PMS7003;64644;48.914;2.254;2022-12-16T03:30:29;40.00;38.50;24.50
75960;PMS7003;64644;48.914;2.254;2022-12-16T03:33:05;39.25;37.50;27.00
75960;PMS7003;64644;48.914;2.254;2022-12-16T03:35:39;36.50;34.00;24.50
75960;PMS7003;64644;48.914;2.254;2022-12-16T03:38:09;40.00;39.25;27.00
75960;PMS7003;64644;48.914;2.254;2022-12-16T03:40:36;44.75;39.25;27.50
75960;PMS7003;64644;48.914;2.254;2022-12-16T03:43:03;41.00;38.50;26.00
75960;PMS7003;64644;48.914;2.254;2022-12-16T03:45:40;41.00;33.75;20.50
75960;PMS7003;64644;48.914;2.254;2022-12-16T03:48:10;35.75;33.00;19.50
75960;PMS7003;64644;48.914;2.254;2022-12-16T03:50:36;36.00;31.00;23.00
75960;PMS7003;64644;48.914;2.254;2022-12-16T03:53:03;37.75;33.00;20.00
75960;PMS7003;64644;48.914;2.254;2022-12-16T03:55:29;33.00;30.00;22.00
75960;PMS7003;64644;48.914;2.254;2022-12-16T03:57:55;42.25;36.25;21.25
75960;PMS7003;64644;48.914;2.254;2022-12-16T04:00:21;33.50;33.50;23.00
75960;PMS7003;64644;48.914;2.254;2022-12-16T04:02:47;37.00;34.00;22.75
75960;PMS7003;64644;48.914;2.254;2022-12-16T04:05:13;38.50;34.50;26.00
75960;PMS7003;64644;48.914;2.254;2022-12-16T04:07:39;42.75;33.50;22.00
75960;PMS7003;64644;48.914;2.254;2022-12-16T04:10:05;39.25;33.00;20.50
75960;PMS7003;64644;48.914;2.254;2022-12-16T04:12:30;43.75;34.75;26.00
75960;PMS7003;64644;48.914;2.254;2022-12-16T04:15:14;48.50;42.25;24.00
75960;PMS7003;64644;48.914;2.254;2022-12-16T04:17:58;48.75;38.00;24.75
75960;PMS7003;64644;48.914;2.254;2022-12-16T04:20:43;40.75;36.50;22.00
75960;PMS7003;64644;48.914;2.254;2022-12-16T04:23:30;46.50;42.25;24.25
75960;PMS7003;64644;48.914;2.254;2022-12-16T04:26:16;45.75;34.50;23.50
75960;PMS7003;64644;48.914;2.254;2022-12-16T04:28:42;45.00;38.00;26.75
75960;PMS7003;64644;48.914;2.254;2022-12-16T04:31:07;33.50;30.25;23.50
75960;PMS7003;64644;48.914;2.254;2022-12-16T04:33:33;43.00;37.00;23.50
75960;PMS7003;64644;48.914;2.254;2022-12-16T04:36:17;41.00;37.00;21.50
75960;PMS7003;64644;48.914;2.254;2022-12-16T04:39:01;40.75;33.75;22.00
75960;PMS7003;64644;48.914;2.254;2022-12-16T04:41:45;42.25;36.50;22.25
75960;PMS7003;64644;48.914;2.254;2022-12-16T04:44:29;41.25;37.25;23.00
75960;PMS7003;64644;48.914;2.254;2022-12-16T04:47:13;36.00;32.75;24.00
75960;PMS7003;64644;48.914;2.254;2022-12-16T04:49:57;39.25;30.75;21.00
75960;PMS7003;64644;48.914;2.254;2022-12-16T04:52:41;40.00;35.00;22.00
75960;PMS7003;64644;48.914;2.254;2022-12-16T04:55:25;38.00;27.75;18.00
75960;PMS7003;64644;48.914;2.254;2022-12-16T04:58:09;34.00;28.50;20.00
75960;PMS7003;64644;48.914;2.254;2022-12-16T05:00:53;34.75;34.75;23.00
75960;PMS7003;64644;48.914;2.254;2022-12-16T05:03:37;30.75;29.25;17.75
75960;PMS7003;64644;48.914;2.254;2022-12-16T05:06:21;34.75;31.00;20.00
75960;PMS7003;64644;48.914;2.254;2022-12-16T05:09:05;28.50;27.00;19.50
75960;PMS7003;64644;48.914;2.254;2022-12-16T05:11:50;32.00;27.50;19.00
75960;PMS7003;64644;48.914;2.254;2022-12-16T05:14:35;29.50;27.50;21.00
75960;PMS7003;64644;48.914;2.254;2022-12-16T05:17:19;40.00;35.00;20.00
75960;PMS7003;64644;48.914;2.254;2022-12-16T05:20:04;36.25;30.50;19.75
75960;PMS7003;64644;48.914;2.254;2022-12-16T05:22:48;37.25;31.25;18.25
75960;PMS7003;64644;48.914;2.254;2022-12-16T05:25:32;34.00;27.00;20.00
75960;PMS7003;64644;48.914;2.254;2022-12-16T05:28:16;34.00;27.25;20.00
75960;PMS7003;64644;48.914;2.254;2022-12-16T05:31:02;25.00;22.75;17.75
75960;PMS7003;64644;48.914;2.254;2022-12-16T05:33:46;30.75;28.00;18.75
75960;PMS7003;64644;48.914;2.254;2022-12-16T05:36:30;34.25;29.75;19.00
75960;PMS7003;64644;48.914;2.254;2022-12-16T05:39:14;26.25;22.00;16.50
75960;PMS7003;64644;48.914;2.254;2022-12-16T05:41:57;30.00;28.25;18.25
75960;PMS7003;64644;48.914;2.254;2022-12-16T05:44:41;26.00;24.50;18.00
75960;PMS7003;64644;48.914;2.254;2022-12-16T05:47:25;30.50;28.75;19.00
75960;PMS7003;64644;48.914;2.254;2022-12-16T05:50:10;26.00;25.75;17.00
75960;PMS7003;64644;48.914;2.254;2022-12-16T05:52:55;31.25;29.50;18.50
75960;PMS7003;64644;48.914;2.254;2022-12-16T05:55:40;26.00;25.00;16.00
75960;PMS7003;64644;48.914;2.254;2022-12-16T05:58:25;23.75;21.50;13.50
75960;PMS7003;64644;48.914;2.254;2022-12-16T06:01:09;26.50;21.25;17.00
75960;PMS7003;64644;48.914;2.254;2022-12-16T06:03:53;24.50;23.50;15.25
75960;PMS7003;64644;48.914;2.254;2022-12-16T06:06:37;29.75;28.25;19.25
75960;PMS7003;64644;48.914;2.254;2022-12-16T06:09:21;24.25;23.00;15.00
75960;PMS7003;64644;48.914;2.254;2022-12-16T06:12:05;34.00;28.25;17.50
75960;PMS7003;64644;48.914;2.254;2022-12-16T06:14:49;28.50;26.00;17.00
75960;PMS7003;64644;48.914;2.254;2022-12-16T06:17:33;23.75;23.00;16.00
75960;PMS7003;64644;48.914;2.254;2022-12-16T06:20:17;27.50;25.00;18.00
75960;PMS7003;64644;48.914;2.254;2022-12-16T06:23:01;24.25;21.75;14.75
75960;PMS7003;64644;48.914;2.254;2022-12-16T06:25:45;27.50;23.50;16.00
75960;PMS7003;64644;48.914;2.254;2022-12-16T06:28:29;29.25;29.25;18.25
75960;PMS7003;64644;48.914;2.254;2022-12-16T06:31:16;26.50;25.00;15.25
75960;PMS7003;64644;48.914;2.254;2022-12-16T06:34:00;24.00;23.50;15.25
75960;PMS7003;64644;48.914;2.254;2022-12-16T06:36:44;30.25;23.75;14.25
75960;PMS7003;64644;48.914;2.254;2022-12-16T06:39:28;29.50;25.00;17.00
75960;PMS7003;64644;48.914;2.254;2022-12-16T06:42:12;30.00;25.50;16.50
75960;PMS7003;64644;48.914;2.254;2022-12-16T06:44:56;34.50;25.50;19.00
75960;PMS7003;64644;48.914;2.254;2022-12-16T06:47:43;32.25;31.50;19.50
75960;PMS7003;64644;48.914;2.254;2022-12-16T06:50:27;32.50;28.50;18.75
75960;PMS7003;64644;48.914;2.254;2022-12-16T06:53:12;30.50;29.00;21.50
75960;PMS7003;64644;48.914;2.254;2022-12-16T06:55:57;30.50;25.50;16.50
75960;PMS7003;64644;48.914;2.254;2022-12-16T06:58:41;35.25;29.25;19.00
75960;PMS7003;64644;48.914;2.254;2022-12-16T07:01:24;32.00;28.75;20.00
75960;PMS7003;64644;48.914;2.254;2022-12-16T07:04:08;43.00;33.00;19.00
75960;PMS7003;64644;48.914;2.254;2022-12-16T07:06:52;20.25;20.00;15.25
75960;PMS7003;64644;48.914;2.254;2022-12-16T07:09:36;34.00;27.00;19.00
75960;PMS7003;64644;48.914;2.254;2022-12-16T07:12:20;30.50;28.25;19.50
75960;PMS7003;64644;48.914;2.254;2022-12-16T07:15:05;40.75;31.00;19.75
75960;PMS7003;64644;48.914;2.254;2022-12-16T07:17:49;36.75;30.00;17.00
75960;PMS7003;64644;48.914;2.254;2022-12-16T07:20:33;36.50;34.50;20.00
75960;PMS7003;64644;48.914;2.254;2022-12-16T07:23:17;32.75;29.75;20.75
75960;PMS7003;64644;48.914;2.254;2022-12-16T07:26:01;34.00;24.50;18.25
75960;PMS7003;64644;48.914;2.254;2022-12-16T07:28:45;40.25;34.25;21.00
75960;PMS7003;64644;48.914;2.254;2022-12-16T07:31:29;39.25;31.75;18.75
75960;PMS7003;64644;48.914;2.254;2022-12-16T07:34:13;31.50;28.50;18.50
75960;PMS7003;64644;48.914;2.254;2022-12-16T07:36:57;30.00;27.75;17.75
75960;PMS7003;64644;48.914;2.254;2022-12-16T07:39:41;35.75;26.75;17.50
75960;PMS7003;64644;48.914;2.254;2022-12-16T07:42:25;25.00;22.75;15.25
75960;PMS7003;64644;48.914;2.254;2022-12-16T07:45:09;41.25;40.00;23.50
75960;PMS7003;64644;48.914;2.254;2022-12-16T07:47:54;36.00;34.25;19.75
75960;PMS7003;64644;48.914;2.254;2022-12-16T07:50:38;37.00;33.00;21.25
75960;PMS7003;64644;48.914;2.254;2022-12-16T07:53:23;38.25;33.75;23.25
75960;PMS7003;64644;48.914;2.254;2022-12-16T07:56:07;40.75;35.25;21.25
75960;PMS7003;64644;48.914;2.254;2022-12-16T07:58:52;41.00;34.00;22.00
75960;PMS7003;64644;48.914;2.254;2022-12-16T08:01:36;31.25;31.25;21.25
75960;PMS7003;64644;48.914;2.254;2022-12-16T08:04:20;30.00;26.25;21.00
75960;PMS7003;64644;48.914;2.254;2022-12-16T08:07:04;44.00;34.00;24.00
75960;PMS7003;64644;48.914;2.254;2022-12-16T08:09:48;47.75;37.75;25.00
75960;PMS7003;64644;48.914;2.254;2022-12-16T08:12:31;45.00;36.75;26.00
75960;PMS7003;64644;48.914;2.254;2022-12-16T08:15:15;32.50;27.75;18.00
75960;PMS7003;64644;48.914;2.254;2022-12-16T08:17:59;40.50;32.00;21.25
75960;PMS7003;64644;48.914;2.254;2022-12-16T08:20:43;42.75;35.75;21.25
75960;PMS7003;64644;48.914;2.254;2022-12-16T08:23:27;31.75;31.75;21.00
75960;PMS7003;64644;48.914;2.254;2022-12-16T08:26:11;41.00;38.00;22.75
75960;PMS7003;64644;48.914;2.254;2022-12-16T08:28:55;45.00;41.50;25.50
75960;PMS7003;64644;48.914;2.254;2022-12-16T08:31:39;50.25;40.25;27.00
75960;PMS7003;64644;48.914;2.254;2022-12-16T08:34:23;37.75;34.25;22.00
75960;PMS7003;64644;48.914;2.254;2022-12-16T08:37:07;47.00;39.50;24.75
75960;PMS7003;64644;48.914;2.254;2022-12-16T08:39:51;48.00;41.25;25.50
75960;PMS7003;64644;48.914;2.254;2022-12-16T08:42:35;38.50;38.00;24.00
75960;PMS7003;64644;48.914;2.254;2022-12-16T08:45:33;45.75;39.50;25.25
75960;PMS7003;64644;48.914;2.254;2022-12-16T08:48:17;53.25;45.00;26.50
75960;PMS7003;64644;48.914;2.254;2022-12-16T08:51:02;51.75;45.00;30.00
75960;PMS7003;64644;48.914;2.254;2022-12-16T08:53:47;64.75;50.50;31.25
75960;PMS7003;64644;48.914;2.254;2022-12-16T08:56:31;56.00;46.00;30.00
75960;PMS7003;64644;48.914;2.254;2022-12-16T08:59:15;44.75;39.75;27.50
75960;PMS7003;64644;48.914;2.254;2022-12-16T09:01:59;42.25;39.25;27.00
75960;PMS7003;64644;48.914;2.254;2022-12-16T09:04:51;58.50;47.00;30.50
75960;PMS7003;64644;48.914;2.254;2022-12-16T09:07:35;65.00;52.00;34.00
75960;PMS7003;64644;48.914;2.254;2022-12-16T09:10:19;54.75;47.00;30.00
75960;PMS7003;64644;48.914;2.254;2022-12-16T09:13:10;50.75;46.25;31.50
75960;PMS7003;64644;48.914;2.254;2022-12-16T09:15:58;49.00;41.00;29.50
75960;PMS7003;64644;48.914;2.254;2022-12-16T09:18:42;57.75;44.50;29.00
75960;PMS7003;64644;48.914;2.254;2022-12-16T09:21:26;52.50;43.50;29.00
75960;PMS7003;64644;48.914;2.254;2022-12-16T09:24:10;41.00;36.50;23.50
75960;PMS7003;64644;48.914;2.254;2022-12-16T09:26:54;46.50;40.00;26.00
75960;PMS7003;64644;48.914;2.254;2022-12-16T09:29:39;52.50;47.25;30.00
75960;PMS7003;64644;48.914;2.254;2022-12-16T09:32:22;48.00;40.00;25.00
75960;PMS7003;64644;48.914;2.254;2022-12-16T09:35:06;46.25;42.25;29.00
75960;PMS7003;64644;48.914;2.254;2022-12-16T09:38:07;48.25;44.50;30.00
75960;PMS7003;64644;48.914;2.254;2022-12-16T09:40:51;52.50;44.00;28.00
75960;PMS7003;64644;48.914;2.254;2022-12-16T09:43:58;40.50;40.50;28.25
75960;PMS7003;64644;48.914;2.254;2022-12-16T09:49:48;46.25;43.25;29.50
75960;PMS7003;64644;48.914;2.254;2022-12-16T09:52:43;53.00;47.50;30.75
75960;PMS7003;64644;48.914;2.254;2022-12-16T09:55:36;48.75;44.25;28.25
75960;PMS7003;64644;48.914;2.254;2022-12-16T09:58:24;53.75;45.75;30.25
75960;PMS7003;64644;48.914;2.254;2022-12-16T10:01:12;44.25;41.00;28.50
75960;PMS7003;64644;48.914;2.254;2022-12-16T10:03:56;55.25;48.50;32.00
75960;PMS7003;64644;48.914;2.254;2022-12-16T10:06:41;53.00;45.50;28.25
75960;PMS7003;64644;48.914;2.254;2022-12-16T10:13:43;55.75;45.75;29.75
75960;PMS7003;64644;48.914;2.254;2022-12-16T10:19:10;47.75;37.00;24.00
75960;PMS7003;64644;48.914;2.254;2022-12-16T10:25:17;38.50;26.75;19.00
75960;PMS7003;64644;48.914;2.254;2022-12-16T10:28:47;31.50;27.25;19.00
75960;PMS7003;64644;48.914;2.254;2022-12-16T10:31:23;29.75;26.75;21.50
75960;PMS7003;64644;48.914;2.254;2022-12-16T10:34:13;33.50;29.25;18.75
75960;PMS7003;64644;48.914;2.254;2022-12-16T10:37:15;30.25;27.25;18.75
75960;PMS7003;64644;48.914;2.254;2022-12-16T10:40:13;32.75;27.00;18.75
75960;PMS7003;64644;48.914;2.254;2022-12-16T10:43:03;28.25;27.25;19.00
75960;PMS7003;64644;48.914;2.254;2022-12-16T10:45:54;31.50;27.75;19.50
75960;PMS7003;64644;48.914;2.254;2022-12-16T10:48:39;36.75;30.75;21.00
75960;PMS7003;64644;48.914;2.254;2022-12-16T10:51:25;35.00;29.75;17.75
75960;PMS7003;64644;48.914;2.254;2022-12-16T10:57:08;30.75;27.00;18.75
75960;PMS7003;64644;48.914;2.254;2022-12-16T11:01:00;36.50;32.75;21.00
75960;PMS7003;64644;48.914;2.254;2022-12-16T11:03:24;38.25;31.75;20.50
75960;PMS7003;64644;48.914;2.254;2022-12-16T11:06:12;37.25;30.75;25.00
75960;PMS7003;64644;48.914;2.254;2022-12-16T11:15:17;40.75;37.00;24.50
75960;PMS7003;64644;48.914;2.254;2022-12-16T11:18:03;43.00;40.75;28.00
75960;PMS7003;64644;48.914;2.254;2022-12-16T11:24:09;39.00;33.25;23.50
75960;PMS7003;64644;48.914;2.254;2022-12-16T11:26:55;37.25;33.00;21.75
75960;PMS7003;64644;48.914;2.254;2022-12-16T11:29:51;44.75;37.25;26.00
75960;PMS7003;64644;48.914;2.254;2022-12-16T11:32:39;47.75;36.00;22.00
75960;PMS7003;64644;48.914;2.254;2022-12-16T11:35:31;30.75;28.75;21.75
75960;PMS7003;64644;48.914;2.254;2022-12-16T11:41:15;40.25;37.75;23.50
75960;PMS7003;64644;48.914;2.254;2022-12-16T11:44:09;38.50;35.50;19.00
75960;PMS7003;64644;48.914;2.254;2022-12-16T11:47:00;40.00;36.25;23.50
75960;PMS7003;64644;48.914;2.254;2022-12-16T11:50:07;35.50;32.25;18.75
75960;PMS7003;64644;48.914;2.254;2022-12-16T11:52:59;41.25;37.25;24.75
75960;PMS7003;64644;48.914;2.254;2022-12-16T11:55:44;31.00;31.00;20.25
75960;PMS7003;64644;48.914;2.254;2022-12-16T11:58:45;41.00;35.00;23.50
75960;PMS7003;64644;48.914;2.254;2022-12-16T12:01:34;48.00;38.50;26.75
75960;PMS7003;64644;48.914;2.254;2022-12-16T12:04:38;37.00;36.50;25.75
75960;PMS7003;64644;48.914;2.254;2022-12-16T12:08:24;37.75;36.50;23.00
75960;PMS7003;64644;48.914;2.254;2022-12-16T12:14:38;44.00;41.00;25.50
75960;PMS7003;64644;48.914;2.254;2022-12-16T12:23:05;48.50;39.00;24.75
75960;PMS7003;64644;48.914;2.254;2022-12-16T12:25:58;50.25;38.75;24.25
75960;PMS7003;64644;48.914;2.254;2022-12-16T12:37:48;60.25;48.00;30.25
75960;PMS7003;64644;48.914;2.254;2022-12-16T12:43:53;44.50;42.75;28.50
75960;PMS7003;64644;48.914;2.254;2022-12-16T12:46:44;43.00;39.00;25.00
75960;PMS7003;64644;48.914;2.254;2022-12-16T12:55:56;50.50;43.00;27.75
75960;PMS7003;64644;48.914;2.254;2022-12-16T12:59:44;48.75;44.50;26.50
75960;PMS7003;64644;48.914;2.254;2022-12-16T13:05:50;42.75;40.00;24.50
75960;PMS7003;64644;48.914;2.254;2022-12-16T13:11:32;34.75;33.25;25.00
75960;PMS7003;64644;48.914;2.254;2022-12-16T13:17:19;49.50;43.75;26.75
75960;PMS7003;64644;48.914;2.254;2022-12-16T13:23:29;43.25;35.50;24.00
75960;PMS7003;64644;48.914;2.254;2022-12-16T13:26:15;39.00;33.75;22.50
75960;PMS7003;64644;48.914;2.254;2022-12-16T13:29:46;45.50;36.00;21.00
75960;PMS7003;64644;48.914;2.254;2022-12-16T13:40:58;38.50;33.50;22.50
75960;PMS7003;64644;48.914;2.254;2022-12-16T13:46:40;36.75;33.25;21.00
75960;PMS7003;64644;48.914;2.254;2022-12-16T14:01:11;36.50;36.00;24.50
75960;PMS7003;64644;48.914;2.254;2022-12-16T14:04:00;31.50;31.50;21.50
75960;PMS7003;64644;48.914;2.254;2022-12-16T14:06:44;39.50;33.50;21.25
75960;PMS7003;64644;48.914;2.254;2022-12-16T14:09:31;40.00;37.50;22.00
75960;PMS7003;64644;48.914;2.254;2022-12-16T14:15:18;41.50;35.50;21.75
75960;PMS7003;64644;48.914;2.254;2022-12-16T14:21:20;44.75;36.75;22.00
75960;PMS7003;64644;48.914;2.254;2022-12-16T14:24:16;33.50;31.75;21.00
75960;PMS7003;64644;48.914;2.254;2022-12-16T14:27:11;34.00;32.75;20.50
75960;PMS7003;64644;48.914;2.254;2022-12-16T14:29:57;31.50;29.50;20.50
75960;PMS7003;64644;48.914;2.254;2022-12-16T14:32:41;22.00;19.50;16.00
75960;PMS7003;64644;48.914;2.254;2022-12-16T14:35:26;37.00;35.00;21.50
75960;PMS7003;64644;48.914;2.254;2022-12-16T14:38:29;43.25;36.25;22.25
75960;PMS7003;64644;48.914;2.254;2022-12-16T14:41:14;40.00;35.00;22.50
75960;PMS7003;64644;48.914;2.254;2022-12-16T14:44:01;38.00;34.25;24.25
75960;PMS7003;64644;48.914;2.254;2022-12-16T14:46:51;43.00;38.00;25.00
75960;PMS7003;64644;48.914;2.254;2022-12-16T14:49:35;39.25;33.75;21.50
75960;PMS7003;64644;48.914;2.254;2022-12-16T14:52:32;41.75;40.00;26.50
75960;PMS7003;64644;48.914;2.254;2022-12-16T14:55:17;36.50;32.50;23.00
75960;PMS7003;64644;48.914;2.254;2022-12-16T14:58:24;45.25;41.00;27.00
75960;PMS7003;64644;48.914;2.254;2022-12-16T15:01:15;36.25;34.75;25.00
75960;PMS7003;64644;48.914;2.254;2022-12-16T15:04:05;39.75;34.50;22.00
75960;PMS7003;64644;48.914;2.254;2022-12-16T15:06:56;39.50;32.75;22.50
75960;PMS7003;64644;48.914;2.254;2022-12-16T15:09:45;37.75;34.50;24.00
75960;PMS7003;64644;48.914;2.254;2022-12-16T15:12:33;35.00;33.25;21.00
75960;PMS7003;64644;48.914;2.254;2022-12-16T15:18:17;27.75;24.25;17.50
75960;PMS7003;64644;48.914;2.254;2022-12-16T15:21:05;26.50;24.25;16.50
75960;PMS7003;64644;48.914;2.254;2022-12-16T15:23:50;21.00;19.75;15.00
75960;PMS7003;64644;48.914;2.254;2022-12-16T15:26:34;35.50;27.75;16.50
75960;PMS7003;64644;48.914;2.254;2022-12-16T15:29:35;21.75;21.75;15.50
75960;PMS7003;64644;48.914;2.254;2022-12-16T15:35:09;21.00;19.00;13.50
75960;PMS7003;64644;48.914;2.254;2022-12-16T15:37:52;35.00;22.25;13.00
75960;PMS7003;64644;48.914;2.254;2022-12-16T15:40:37;24.00;20.50;13.00
75960;PMS7003;64644;48.914;2.254;2022-12-16T15:49:02;21.00;18.50;14.00
75960;PMS7003;64644;48.914;2.254;2022-12-16T15:51:46;24.00;23.50;17.00
75960;PMS7003;64644;48.914;2.254;2022-12-16T15:54:31;24.00;22.00;16.00
75960;PMS7003;64644;48.914;2.254;2022-12-16T15:57:29;25.00;18.75;12.25
75960;PMS7003;64644;48.914;2.254;2022-12-16T16:03:28;26.00;21.25;13.25
75960;PMS7003;64644;48.914;2.254;2022-12-16T16:09:11;26.25;23.50;15.00
75960;PMS7003;64644;48.914;2.254;2022-12-16T16:11:58;24.00;22.00;15.75
75960;PMS7003;64644;48.914;2.254;2022-12-16T16:14:43;26.00;22.00;15.25
75960;PMS7003;64644;48.914;2.254;2022-12-16T16:17:26;24.00;22.00;13.50
75960;PMS7003;64644;48.914;2.254;2022-12-16T16:20:14;26.00;23.00;15.25
75960;PMS7003;64644;48.914;2.254;2022-12-16T16:23:00;33.50;29.00;18.00
75960;PMS7003;64644;48.914;2.254;2022-12-16T16:25:44;26.00;24.00;18.75
75960;PMS7003;64644;48.914;2.254;2022-12-16T16:28:30;30.50;26.50;16.00
75960;PMS7003;64644;48.914;2.254;2022-12-16T16:31:14;34.75;31.75;18.50
75960;PMS7003;64644;48.914;2.254;2022-12-16T16:33:58;23.50;23.00;16.00
75960;PMS7003;64644;48.914;2.254;2022-12-16T16:36:42;31.00;30.00;19.50
75960;PMS7003;64644;48.914;2.254;2022-12-16T16:39:25;34.00;31.75;20.50
75960;PMS7003;64644;48.914;2.254;2022-12-16T16:42:09;39.25;36.50;24.00
75960;PMS7003;64644;48.914;2.254;2022-12-16T16:44:53;37.50;27.50;18.00
75960;PMS7003;64644;48.914;2.254;2022-12-16T16:47:38;41.00;37.50;22.50
75960;PMS7003;64644;48.914;2.254;2022-12-16T16:50:22;44.50;35.00;22.00
75960;PMS7003;64644;48.914;2.254;2022-12-16T16:53:10;41.75;34.75;21.75
75960;PMS7003;64644;48.914;2.254;2022-12-16T16:55:57;39.75;37.25;27.50
75960;PMS7003;64644;48.914;2.254;2022-12-16T16:58:41;49.75;45.00;26.00
75960;PMS7003;64644;48.914;2.254;2022-12-16T17:01:25;44.00;39.75;27.75
75960;PMS7003;64644;48.914;2.254;2022-12-16T17:04:09;45.00;39.75;26.50
75960;PMS7003;64644;48.914;2.254;2022-12-16T17:06:53;46.00;39.50;26.50
75960;PMS7003;64644;48.914;2.254;2022-12-16T17:09:36;62.00;50.75;30.75
75960;PMS7003;64644;48.914;2.254;2022-12-16T17:12:22;57.50;49.50;30.00
75960;PMS7003;64644;48.914;2.254;2022-12-16T17:15:21;50.25;45.00;30.00
75960;PMS7003;64644;48.914;2.254;2022-12-16T17:18:06;43.75;43.75;27.75
75960;PMS7003;64644;48.914;2.254;2022-12-16T17:20:51;44.25;42.75;28.50
75960;PMS7003;64644;48.914;2.254;2022-12-16T17:23:36;44.75;40.75;30.25
75960;PMS7003;64644;48.914;2.254;2022-12-16T17:26:20;45.00;40.00;28.50
75960;PMS7003;64644;48.914;2.254;2022-12-16T17:29:05;45.25;37.00;26.50
75960;PMS7003;64644;48.914;2.254;2022-12-16T17:31:49;56.50;48.25;30.25
75960;PMS7003;64644;48.914;2.254;2022-12-16T17:34:33;56.00;48.50;33.00
75960;PMS7003;64644;48.914;2.254;2022-12-16T17:37:17;50.50;46.00;27.00
75960;PMS7003;64644;48.914;2.254;2022-12-16T17:40:01;50.75;45.00;30.00
75960;PMS7003;64644;48.914;2.254;2022-12-16T17:42:46;45.50;41.75;28.50